createdAt,value
2023-02-08T00:00:26.559Z,39.97
2023-02-08T00:00:59.895Z,40.07
2023-02-08T00:01:34.702Z,40.05
2023-02-08T00:02:06.931Z,40.05
2023-02-08T00:02:39.203Z,40.13
2023-02-08T00:03:14.082Z,40.10
2023-02-08T00:03:46.363Z,40.01
2023-02-08T00:04:19.125Z,40.08
2023-02-08T00:04:54.118Z,40.16
2023-02-08T00:05:26.342Z,39.84
2023-02-08T00:05:58.568Z,40.21
2023-02-08T00:06:33.444Z,40.02
2023-02-08T00:07:05.672Z,39.83
2023-02-08T00:07:37.916Z,40.21
2023-02-08T00:08:12.809Z,40.19
2023-02-08T00:08:45.456Z,40.21
2023-02-08T00:09:17.718Z,39.86
2023-02-08T00:09:52.550Z,40.16
2023-02-08T00:10:24.851Z,39.81
2023-02-08T00:10:57.124Z,39.77
2023-02-08T00:11:31.963Z,40.18
2023-02-08T00:12:04.648Z,40.17
2023-02-08T00:12:39.501Z,40.02
2023-02-08T00:13:14.364Z,40.09
2023-02-08T00:13:46.972Z,40.20
2023-02-08T00:14:21.806Z,39.78
2023-02-08T00:14:54.049Z,40.17
2023-02-08T00:15:26.284Z,39.84
2023-02-08T00:16:01.372Z,40.20
2023-02-08T00:16:33.767Z,40.13
2023-02-08T00:17:06.111Z,40.12
2023-02-08T00:17:40.935Z,39.76
2023-02-08T00:18:14.832Z,39.96
2023-02-08T00:18:49.719Z,40.19
2023-02-08T00:19:21.976Z,39.88
2023-02-08T00:19:54.221Z,39.95
2023-02-08T00:20:29.060Z,40.18
2023-02-08T00:21:01.396Z,39.84
2023-02-08T00:21:33.629Z,39.88
2023-02-08T00:22:08.448Z,40.05
2023-02-08T00:22:40.683Z,40.16
2023-02-08T00:23:13.703Z,39.87
2023-02-08T00:23:46.703Z,40.05
2023-02-08T00:24:21.529Z,40.06
2023-02-08T00:24:53.768Z,40.06
2023-02-08T00:25:26.064Z,39.77
2023-02-08T00:26:00.870Z,39.88
2023-02-08T00:26:33.133Z,40.03
2023-02-08T00:27:05.395Z,39.85
2023-02-08T00:27:42.819Z,39.97
2023-02-08T00:28:16.744Z,39.96
2023-02-08T00:28:48.997Z,40.00
2023-02-08T00:29:25.799Z,39.94
2023-02-08T00:29:58.057Z,40.12
2023-02-08T00:30:30.297Z,39.97
2023-02-08T00:31:05.568Z,39.80
2023-02-08T00:31:37.976Z,40.10
2023-02-08T00:32:10.744Z,40.01
2023-02-08T00:32:45.567Z,39.90
2023-02-08T00:33:17.798Z,40.18
2023-02-08T00:33:50.107Z,40.14
2023-02-08T00:34:24.944Z,40.23
2023-02-08T00:34:57.198Z,39.93
2023-02-08T00:35:29.808Z,40.29
2023-02-08T00:36:05.914Z,39.74
2023-02-08T00:36:38.214Z,39.93
2023-02-08T00:37:10.953Z,40.18
2023-02-08T00:37:45.817Z,40.28
2023-02-08T00:38:18.067Z,40.28
2023-02-08T00:38:51.479Z,39.83
2023-02-08T00:39:24.664Z,40.25
2023-02-08T00:40:02.667Z,40.27
2023-02-08T00:40:34.923Z,40.11
2023-02-08T00:41:07.207Z,40.24
2023-02-08T00:41:42.071Z,40.32
2023-02-08T00:42:14.348Z,40.23
2023-02-08T00:42:49.184Z,40.21
2023-02-08T00:43:24.040Z,39.98
2023-02-08T00:43:56.339Z,39.91
2023-02-08T00:44:31.205Z,39.96
2023-02-08T00:45:03.623Z,40.18
2023-02-08T00:45:36.231Z,40.06
2023-02-08T00:46:11.083Z,40.07
2023-02-08T00:46:43.398Z,40.18
2023-02-08T00:47:16.275Z,40.08
2023-02-08T00:47:51.124Z,40.31
2023-02-08T00:48:23.668Z,39.96
2023-02-08T00:48:55.901Z,39.95
2023-02-08T00:49:30.782Z,40.18
2023-02-08T00:50:03.064Z,40.19
2023-02-08T00:50:35.378Z,40.45
2023-02-08T00:51:13.663Z,40.09
2023-02-08T00:51:45.948Z,39.95
2023-02-08T00:52:18.655Z,40.30
2023-02-08T00:52:53.547Z,40.22
2023-02-08T00:53:25.842Z,40.40
2023-02-08T00:53:58.252Z,40.13
2023-02-08T00:54:33.371Z,40.11
2023-02-08T00:55:06.368Z,40.16
2023-02-08T00:55:38.735Z,40.33
2023-02-08T00:56:15.008Z,40.28
2023-02-08T00:56:47.524Z,39.89
2023-02-08T00:57:19.760Z,40.28
2023-02-08T00:57:57.195Z,40.02
2023-02-08T00:58:29.444Z,39.87
2023-02-08T00:59:01.687Z,40.30
2023-02-08T00:59:33.917Z,40.00
2023-02-08T01:00:10.466Z,40.09
2023-02-08T01:00:43.150Z,39.94
2023-02-08T01:01:15.459Z,40.31
2023-02-08T01:01:50.364Z,40.23
2023-02-08T01:02:22.622Z,40.42
2023-02-08T01:02:54.884Z,40.13
2023-02-08T01:03:30.092Z,39.99
2023-02-08T01:04:02.378Z,40.02
2023-02-08T01:04:34.603Z,39.88
2023-02-08T01:05:09.909Z,39.83
2023-02-08T01:05:42.135Z,40.24
2023-02-08T01:06:16.638Z,40.25
2023-02-08T01:06:53.020Z,40.12
2023-02-08T01:07:25.374Z,40.24
2023-02-08T01:07:58.200Z,40.39
2023-02-08T01:08:33.092Z,40.33
2023-02-08T01:09:06.323Z,40.02
2023-02-08T01:09:38.833Z,40.21
2023-02-08T01:10:14.196Z,39.93
2023-02-08T01:10:46.493Z,39.84
2023-02-08T01:11:21.890Z,40.37
2023-02-08T01:11:56.808Z,40.08
2023-02-08T01:12:29.092Z,40.16
2023-02-08T01:13:03.932Z,40.05
2023-02-08T01:13:39.787Z,40.28
2023-02-08T01:14:14.144Z,40.52
2023-02-08T01:14:46.553Z,40.50
2023-02-08T01:15:21.444Z,40.38
2023-02-08T01:15:53.715Z,40.40
2023-02-08T01:16:28.174Z,40.57
2023-02-08T01:17:03.280Z,40.11
2023-02-08T01:17:35.754Z,40.25
2023-02-08T01:18:07.990Z,40.16
2023-02-08T01:18:44.168Z,40.13
2023-02-08T01:19:17.387Z,40.18
2023-02-08T01:19:49.633Z,40.67
2023-02-08T01:20:27.085Z,40.41
2023-02-08T01:21:04.668Z,40.35
2023-02-08T01:21:39.587Z,40.25
2023-02-08T01:22:14.425Z,40.34
2023-02-08T01:22:46.678Z,40.35
2023-02-08T01:23:19.072Z,40.24
2023-02-08T01:23:54.333Z,40.23
2023-02-08T01:24:26.608Z,40.67
2023-02-08T01:24:58.852Z,40.40
2023-02-08T01:25:34.302Z,40.57
2023-02-08T01:26:07.946Z,40.23
2023-02-08T01:26:40.183Z,40.26
2023-02-08T01:27:15.018Z,40.15
2023-02-08T01:27:47.335Z,40.35
2023-02-08T01:28:22.290Z,40.47
2023-02-08T01:28:58.143Z,40.32
2023-02-08T01:29:30.449Z,40.46
2023-02-08T01:30:02.737Z,40.45
2023-02-08T01:30:37.667Z,40.26
2023-02-08T01:31:12.123Z,40.39
2023-02-08T01:31:49.397Z,40.40
2023-02-08T01:32:21.635Z,40.54
2023-02-08T01:32:53.867Z,40.56
2023-02-08T01:33:28.798Z,40.54
2023-02-08T01:34:01.752Z,40.23
2023-02-08T01:34:34.044Z,40.20
2023-02-08T01:35:09.592Z,40.16
2023-02-08T01:35:43.144Z,40.29
2023-02-08T01:36:16.532Z,40.62
2023-02-08T01:36:51.409Z,40.40
2023-02-08T01:37:23.663Z,40.67
2023-02-08T01:37:55.914Z,40.57
2023-02-08T01:38:28.203Z,40.30
2023-02-08T01:39:03.155Z,40.23
2023-02-08T01:39:35.617Z,40.64
2023-02-08T01:40:09.221Z,40.45
2023-02-08T01:40:44.193Z,40.45
2023-02-08T01:41:18.402Z,40.39
2023-02-08T01:41:53.226Z,40.59
2023-02-08T01:42:26.578Z,40.30
2023-02-08T01:42:58.831Z,40.30
2023-02-08T01:43:37.740Z,40.42
2023-02-08T01:44:40.460Z,40.59
2023-02-08T01:45:30.830Z,40.61
2023-02-08T01:46:03.163Z,40.33
2023-02-08T01:46:37.302Z,40.26
2023-02-08T01:47:12.600Z,40.23
2023-02-08T01:47:45.816Z,40.54
2023-02-08T01:48:22.784Z,40.40
2023-02-08T01:48:55.755Z,40.67
2023-02-08T01:49:30.164Z,40.63
2023-02-08T01:50:02.463Z,40.65
2023-02-08T01:50:42.413Z,40.38
2023-02-08T01:51:16.873Z,40.57
2023-02-08T01:51:55.512Z,40.38
2023-02-08T01:52:28.880Z,40.70
2023-02-08T01:53:02.604Z,40.57
2023-02-08T01:53:38.350Z,40.44
2023-02-08T01:54:11.781Z,40.62
2023-02-08T01:54:48.965Z,40.36
2023-02-08T01:55:29.344Z,40.68
2023-02-08T01:56:03.118Z,40.42
2023-02-08T01:56:38.157Z,40.25
2023-02-08T01:57:13.153Z,40.59
2023-02-08T01:57:45.689Z,40.27
2023-02-08T01:58:21.476Z,40.65
2023-02-08T01:58:58.208Z,40.72
2023-02-08T01:59:35.907Z,40.50
2023-02-08T02:00:13.118Z,40.22
2023-02-08T02:00:48.557Z,40.37
2023-02-08T02:01:21.271Z,40.81
2023-02-08T02:01:57.585Z,40.63
2023-02-08T02:02:30.104Z,40.64
2023-02-08T02:03:02.815Z,40.27
2023-02-08T02:03:37.743Z,40.43
2023-02-08T02:04:10.022Z,40.38
2023-02-08T02:04:42.383Z,40.78
2023-02-08T02:05:15.131Z,40.66
2023-02-08T02:05:51.694Z,40.40
2023-02-08T02:06:26.792Z,40.58
2023-02-08T02:07:00.112Z,40.81
2023-02-08T02:07:32.679Z,40.57
2023-02-08T02:08:08.120Z,40.33
2023-02-08T02:08:56.514Z,40.65
2023-02-08T02:09:34.871Z,40.34
2023-02-08T02:10:10.592Z,40.33
2023-02-08T02:10:44.060Z,40.79
2023-02-08T02:11:18.988Z,40.67
2023-02-08T02:11:52.443Z,40.48
2023-02-08T02:12:25.028Z,40.40
2023-02-08T02:13:06.260Z,40.69
2023-02-08T02:13:38.604Z,40.64
2023-02-08T02:14:13.606Z,40.52
2023-02-08T02:14:48.805Z,40.45
2023-02-08T02:15:21.311Z,40.65
2023-02-08T02:15:54.413Z,40.69
2023-02-08T02:16:29.295Z,40.71
2023-02-08T02:17:02.504Z,40.64
2023-02-08T02:17:35.360Z,40.64
2023-02-08T02:18:10.876Z,40.41
2023-02-08T02:18:43.456Z,40.25
2023-02-08T02:19:23.893Z,40.45
2023-02-08T02:20:04.497Z,40.64
2023-02-08T02:20:56.551Z,40.42
2023-02-08T02:21:39.201Z,40.71
2023-02-08T02:22:29.335Z,40.51
2023-02-08T02:23:37.107Z,40.62
2023-02-08T02:24:46.314Z,40.15
2023-02-08T02:25:44.927Z,40.45
2023-02-08T02:26:31.852Z,40.50
2023-02-08T02:27:17.620Z,40.36
2023-02-08T02:28:17.880Z,40.15
2023-02-08T02:29:08.882Z,40.45
2023-02-08T02:30:25.904Z,40.07
2023-02-08T02:31:28.265Z,40.52
2023-02-08T02:32:15.610Z,40.14
2023-02-08T02:32:58.624Z,40.26
2023-02-08T02:33:40.068Z,40.54
2023-02-08T02:34:18.433Z,40.50
2023-02-08T02:34:53.530Z,40.47
2023-02-08T02:35:30.048Z,40.49
2023-02-08T02:36:09.978Z,40.44
2023-02-08T02:36:46.860Z,40.07
2023-02-08T02:37:31.141Z,39.99
2023-02-08T02:38:13.033Z,40.38
2023-02-08T02:38:52.573Z,40.24
2023-02-08T02:39:30.442Z,40.52
2023-02-08T02:40:12.213Z,40.43
2023-02-08T02:40:50.791Z,40.09
2023-02-08T02:41:43.500Z,40.01
2023-02-08T02:42:39.689Z,40.19
2023-02-08T02:43:30.500Z,40.16
2023-02-08T02:44:04.419Z,40.00
2023-02-08T02:44:41.427Z,40.18
2023-02-08T02:45:18.777Z,40.49
2023-02-08T02:45:59.584Z,40.23
2023-02-08T02:46:40.894Z,40.16
2023-02-08T02:47:18.250Z,40.26
2023-02-08T02:47:58.020Z,40.59
2023-02-08T02:48:34.339Z,40.15
2023-02-08T02:49:09.831Z,40.09
2023-02-08T02:49:51.693Z,40.36
2023-02-08T02:50:27.308Z,40.30
2023-02-08T02:51:01.030Z,40.46
2023-02-08T02:51:39.936Z,40.42
2023-02-08T02:52:13.405Z,40.23
2023-02-08T02:52:49.108Z,40.51
2023-02-08T02:53:27.462Z,40.44
2023-02-08T02:54:02.256Z,40.27
2023-02-08T02:54:38.856Z,40.29
2023-02-08T02:55:16.552Z,40.31
2023-02-08T02:55:52.615Z,40.27
2023-02-08T02:56:27.907Z,40.41
2023-02-08T02:57:05.825Z,40.06
2023-02-08T02:57:38.446Z,40.04
2023-02-08T02:58:12.533Z,39.94
2023-02-08T02:58:48.245Z,40.24
2023-02-08T02:59:20.615Z,40.40
2023-02-08T02:59:52.936Z,40.08
2023-02-08T03:00:29.461Z,40.28
2023-02-08T03:01:02.145Z,40.31
2023-02-08T03:01:37.086Z,40.38
2023-02-08T03:02:12.978Z,40.14
2023-02-08T03:02:45.313Z,40.15
2023-02-08T03:03:21.567Z,40.31
2023-02-08T03:03:56.558Z,40.39
2023-02-08T03:04:54.449Z,40.30
2023-02-08T03:05:30.121Z,40.21
2023-02-08T03:06:05.672Z,40.40
2023-02-08T03:06:51.640Z,40.16
2023-02-08T03:07:50.968Z,40.46
2023-02-08T03:08:59.174Z,40.48
2023-02-08T03:09:43.040Z,40.54
2023-02-08T03:10:40.245Z,40.18
2023-02-08T03:11:21.792Z,40.25
2023-02-08T03:11:58.162Z,40.36
2023-02-08T03:12:36.736Z,40.25
2023-02-08T03:13:23.099Z,40.33
2023-02-08T03:14:33.116Z,40.23
2023-02-08T03:15:33.347Z,40.59
2023-02-08T03:16:32.980Z,40.16
2023-02-08T03:17:37.875Z,40.45
2023-02-08T03:18:36.017Z,40.47
2023-02-08T03:19:34.994Z,40.29
2023-02-08T03:20:30.793Z,40.18
2023-02-08T03:21:34.104Z,40.23
2023-02-08T03:22:32.544Z,40.41
2023-02-08T03:23:31.666Z,40.14
2023-02-08T03:24:29.551Z,40.20
2023-02-08T03:25:27.239Z,40.22
2023-02-08T03:26:17.035Z,40.25
2023-02-08T03:26:54.210Z,40.21
2023-02-08T03:27:34.384Z,40.36
2023-02-08T03:28:10.460Z,40.64
2023-02-08T03:28:48.876Z,40.24
2023-02-08T03:29:30.296Z,40.26
2023-02-08T03:30:05.368Z,40.64
2023-02-08T03:30:46.479Z,40.71
2023-02-08T03:31:26.578Z,40.41
2023-02-08T03:32:00.641Z,40.28
2023-02-08T03:32:41.964Z,40.18
2023-02-08T03:33:17.586Z,40.29
2023-02-08T03:33:53.555Z,40.29
2023-02-08T03:34:33.647Z,40.20
2023-02-08T03:35:10.633Z,40.51
2023-02-08T03:35:47.882Z,40.33
2023-02-08T03:36:24.186Z,40.54
2023-02-08T03:36:58.937Z,40.63
2023-02-08T03:37:36.206Z,40.19
2023-02-08T03:38:10.633Z,40.64
2023-02-08T03:38:44.507Z,40.47
2023-02-08T03:39:23.119Z,40.64
2023-02-08T03:39:59.384Z,40.18
2023-02-08T03:40:35.744Z,40.25
2023-02-08T03:41:13.183Z,40.47
2023-02-08T03:41:46.994Z,40.29
2023-02-08T03:42:22.296Z,40.40
2023-02-08T03:43:00.913Z,40.56
2023-02-08T03:43:36.033Z,40.13
2023-02-08T03:44:12.356Z,40.45
2023-02-08T03:44:51.217Z,40.50
2023-02-08T03:45:31.355Z,40.27
2023-02-08T03:46:08.147Z,40.33
2023-02-08T03:46:46.850Z,40.07
2023-02-08T03:47:23.178Z,40.23
2023-02-08T03:48:00.788Z,40.38
2023-02-08T03:48:37.684Z,40.09
2023-02-08T03:49:14.044Z,40.57
2023-02-08T03:49:50.021Z,40.59
2023-02-08T03:50:25.627Z,40.22
2023-02-08T03:50:59.194Z,40.52
2023-02-08T03:51:33.525Z,40.25
2023-02-08T03:52:11.705Z,40.47
2023-02-08T03:52:45.564Z,40.36
2023-02-08T03:53:20.553Z,40.26
2023-02-08T03:53:55.885Z,40.48
2023-02-08T03:54:30.757Z,40.33
2023-02-08T03:55:05.893Z,40.60
2023-02-08T03:55:42.030Z,40.32
2023-02-08T03:56:17.640Z,40.55
2023-02-08T03:56:54.539Z,40.30
2023-02-08T03:57:31.595Z,40.49
2023-02-08T03:58:07.019Z,40.39
2023-02-08T03:58:42.447Z,40.45
2023-02-08T03:59:21.856Z,40.33
2023-02-08T03:59:58.025Z,40.27
2023-02-08T04:00:32.385Z,40.23
2023-02-08T04:01:09.374Z,40.27
2023-02-08T04:01:44.691Z,40.31
2023-02-08T04:02:20.643Z,40.59
2023-02-08T04:03:02.924Z,40.35
2023-02-08T04:03:35.842Z,40.32
2023-02-08T04:04:08.435Z,40.40
2023-02-08T04:04:45.305Z,40.17
2023-02-08T04:05:17.592Z,40.18
2023-02-08T04:05:50.036Z,40.17
2023-02-08T04:06:25.349Z,40.16
2023-02-08T04:06:57.617Z,40.23
2023-02-08T04:07:29.837Z,39.99
2023-02-08T04:08:04.915Z,40.08
2023-02-08T04:08:37.228Z,40.49
2023-02-08T04:09:09.467Z,40.62
2023-02-08T04:09:44.447Z,40.50
2023-02-08T04:10:16.924Z,40.29
2023-02-08T04:10:49.654Z,40.23
2023-02-08T04:11:24.780Z,40.58
2023-02-08T04:11:57.083Z,40.05
2023-02-08T04:12:29.349Z,40.06
2023-02-08T04:13:04.590Z,40.11
2023-02-08T04:13:36.871Z,40.69
2023-02-08T04:14:09.112Z,40.64
2023-02-08T04:14:43.935Z,40.40
2023-02-08T04:15:17.277Z,40.25
2023-02-08T04:15:49.526Z,40.21
2023-02-08T04:16:24.457Z,40.20
2023-02-08T04:16:56.913Z,40.45
2023-02-08T04:17:29.187Z,40.44
2023-02-08T04:18:06.857Z,40.56
2023-02-08T04:18:39.184Z,40.50
2023-02-08T04:19:11.616Z,40.47
2023-02-08T04:19:43.857Z,40.50
2023-02-08T04:20:18.898Z,40.41
2023-02-08T04:20:51.144Z,40.59
2023-02-08T04:21:23.399Z,40.20
2023-02-08T04:21:58.223Z,40.38
2023-02-08T04:22:30.444Z,40.46
2023-02-08T04:23:02.664Z,40.31
2023-02-08T04:23:37.519Z,40.62
2023-02-08T04:24:09.812Z,40.31
2023-02-08T04:24:42.123Z,40.45
2023-02-08T04:25:16.981Z,40.59
2023-02-08T04:25:49.278Z,40.68
2023-02-08T04:26:21.515Z,40.32
2023-02-08T04:26:56.357Z,40.35
2023-02-08T04:27:28.580Z,40.50
2023-02-08T04:28:00.884Z,40.25
2023-02-08T04:28:35.756Z,40.44
2023-02-08T04:29:07.983Z,40.28
2023-02-08T04:29:42.849Z,40.16
2023-02-08T04:30:15.101Z,40.35
2023-02-08T04:30:47.653Z,40.35
2023-02-08T04:31:22.617Z,40.23
2023-02-08T04:31:54.957Z,40.34
2023-02-08T04:32:27.229Z,40.53
2023-02-08T04:33:02.629Z,40.42
2023-02-08T04:33:37.475Z,40.39
2023-02-08T04:34:09.710Z,40.23
2023-02-08T04:34:41.928Z,40.46
2023-02-08T04:35:16.800Z,40.40
2023-02-08T04:35:49.064Z,40.64
2023-02-08T04:36:23.976Z,40.47
2023-02-08T04:36:56.205Z,40.15
2023-02-08T04:37:31.032Z,40.53
2023-02-08T04:38:03.305Z,40.36
2023-02-08T04:38:35.725Z,40.72
2023-02-08T04:39:10.567Z,40.66
2023-02-08T04:39:42.871Z,40.48
2023-02-08T04:40:15.140Z,40.40
2023-02-08T04:40:49.991Z,40.27
2023-02-08T04:41:22.239Z,40.41
2023-02-08T04:41:54.457Z,40.28
2023-02-08T04:42:29.391Z,40.51
2023-02-08T04:43:02.488Z,40.64
2023-02-08T04:43:34.772Z,40.35
2023-02-08T04:44:09.588Z,40.46
2023-02-08T04:44:41.825Z,40.20
2023-02-08T04:45:14.164Z,40.38
2023-02-08T04:45:49.044Z,40.58
2023-02-08T04:46:21.314Z,40.24
2023-02-08T04:46:53.629Z,40.18
2023-02-08T04:47:28.440Z,40.32
2023-02-08T04:48:01.751Z,40.25
2023-02-08T04:48:36.602Z,40.70
2023-02-08T04:49:11.418Z,40.44
2023-02-08T04:49:43.644Z,40.74
2023-02-08T04:50:18.720Z,40.57
2023-02-08T04:50:51.038Z,40.63
2023-02-08T04:51:23.283Z,40.73
2023-02-08T04:51:58.128Z,40.41
2023-02-08T04:52:30.459Z,40.48
2023-02-08T04:53:02.794Z,40.33
2023-02-08T04:53:37.720Z,40.54
2023-02-08T04:54:09.976Z,40.76
2023-02-08T04:54:42.197Z,40.36
2023-02-08T04:55:17.115Z,40.71
2023-02-08T04:55:49.413Z,40.15
2023-02-08T04:56:21.686Z,40.33
2023-02-08T04:56:56.610Z,40.30
2023-02-08T04:57:28.944Z,40.69
2023-02-08T04:58:01.223Z,40.42
2023-02-08T04:58:36.048Z,40.46
2023-02-08T04:59:08.376Z,40.50
2023-02-08T04:59:40.644Z,40.41
2023-02-08T05:00:16.737Z,40.73
2023-02-08T05:00:49.181Z,40.75
2023-02-08T05:01:21.631Z,40.38
2023-02-08T05:01:56.606Z,40.62
2023-02-08T05:02:28.877Z,40.53
2023-02-08T05:03:01.162Z,41.40
2023-02-08T05:03:36.031Z,41.52
2023-02-08T05:04:10.887Z,41.44
2023-02-08T05:04:45.733Z,41.54
2023-02-08T05:05:18.225Z,41.32
2023-02-08T05:06:00.449Z,41.33
2023-02-08T05:06:32.746Z,42.18
2023-02-08T05:07:07.999Z,42.85
2023-02-08T05:07:40.219Z,42.93
2023-02-08T05:08:12.443Z,42.72
2023-02-08T05:08:44.701Z,42.75
2023-02-08T05:09:19.544Z,42.52
2023-02-08T05:09:51.764Z,42.40
2023-02-08T05:10:24.001Z,42.38
2023-02-08T05:10:58.839Z,42.42
2023-02-08T05:11:31.088Z,42.66
2023-02-08T05:12:06.061Z,42.84
2023-02-08T05:12:38.484Z,42.75
2023-02-08T05:13:10.721Z,42.77
2023-02-08T05:13:45.528Z,42.72
2023-02-08T05:14:17.743Z,42.68
2023-02-08T05:14:49.962Z,42.55
2023-02-08T05:15:24.897Z,42.65
2023-02-08T05:15:57.179Z,42.72
2023-02-08T05:16:29.585Z,42.48
2023-02-08T05:17:04.404Z,42.42
2023-02-08T05:17:37.147Z,42.36
2023-02-08T05:18:09.403Z,42.47
2023-02-08T05:18:44.240Z,42.23
2023-02-08T05:19:19.147Z,42.55
2023-02-08T05:19:51.402Z,42.72
2023-02-08T05:20:26.272Z,42.72
2023-02-08T05:20:59.712Z,42.74
2023-02-08T05:21:34.572Z,42.24
2023-02-08T05:22:06.808Z,42.44
2023-02-08T05:22:41.764Z,42.68
2023-02-08T05:23:14.001Z,42.26
2023-02-08T05:23:46.912Z,42.38
2023-02-08T05:24:21.815Z,42.43
2023-02-08T05:24:54.116Z,42.02
2023-02-08T05:25:26.369Z,42.35
2023-02-08T05:26:01.700Z,42.29
2023-02-08T05:26:33.941Z,42.02
2023-02-08T05:27:06.170Z,41.95
2023-02-08T05:27:41.044Z,42.05
2023-02-08T05:28:13.348Z,41.98
2023-02-08T05:28:48.204Z,42.10
2023-02-08T05:29:20.421Z,41.88
2023-02-08T05:29:52.683Z,42.35
2023-02-08T05:30:27.518Z,42.20
2023-02-08T05:30:59.872Z,42.14
2023-02-08T05:31:32.248Z,42.03
2023-02-08T05:32:07.365Z,42.12
2023-02-08T05:32:40.091Z,41.81
2023-02-08T05:33:12.342Z,41.91
2023-02-08T05:33:47.163Z,42.16
2023-02-08T05:34:22.075Z,41.78
2023-02-08T05:34:56.924Z,42.04
2023-02-08T05:35:29.160Z,42.14
2023-02-08T05:36:02.415Z,41.92
2023-02-08T05:36:38.038Z,42.03
2023-02-08T05:37:10.307Z,42.15
2023-02-08T05:37:42.568Z,41.78
2023-02-08T05:38:17.406Z,42.01
2023-02-08T05:38:49.846Z,41.90
2023-02-08T05:39:22.052Z,42.07
2023-02-08T05:39:56.878Z,42.15
2023-02-08T05:40:29.686Z,41.73
2023-02-08T05:41:01.947Z,41.78
2023-02-08T05:41:36.860Z,41.54
2023-02-08T05:42:09.134Z,41.59
2023-02-08T05:42:42.566Z,41.72
2023-02-08T05:43:17.414Z,41.63
2023-02-08T05:43:49.650Z,41.86
2023-02-08T05:44:21.934Z,41.61
2023-02-08T05:44:56.961Z,41.83
2023-02-08T05:45:29.342Z,41.59
2023-02-08T05:46:01.603Z,41.93
2023-02-08T05:46:38.173Z,41.72
2023-02-08T05:47:10.702Z,41.72
2023-02-08T05:47:42.979Z,41.93
2023-02-08T05:48:17.792Z,41.60
2023-02-08T05:48:50.038Z,41.83
2023-02-08T05:49:25.004Z,41.53
2023-02-08T05:49:59.863Z,41.49
2023-02-08T05:50:32.302Z,41.58
2023-02-08T05:51:04.707Z,41.43
2023-02-08T05:51:39.563Z,41.66
2023-02-08T05:52:11.794Z,41.32
2023-02-08T05:52:44.022Z,41.44
2023-02-08T05:53:18.856Z,41.37
2023-02-08T05:53:51.067Z,41.60
2023-02-08T05:54:25.899Z,41.37
2023-02-08T05:54:58.160Z,41.48
2023-02-08T05:55:30.408Z,41.46
2023-02-08T05:56:05.241Z,41.37
2023-02-08T05:56:37.489Z,41.25
2023-02-08T05:57:09.796Z,41.27
2023-02-08T05:57:44.616Z,41.22
2023-02-08T05:58:17.503Z,41.46
2023-02-08T05:58:49.728Z,41.51
2023-02-08T05:59:24.569Z,41.14
2023-02-08T05:59:56.801Z,41.38
2023-02-08T06:00:31.637Z,41.39
2023-02-08T06:01:08.831Z,41.45
2023-02-08T06:01:41.082Z,41.22
2023-02-08T06:02:17.139Z,41.41
2023-02-08T06:02:49.524Z,41.08
2023-02-08T06:03:21.866Z,41.03
2023-02-08T06:03:56.973Z,41.25
2023-02-08T06:04:31.834Z,41.19
2023-02-08T06:05:06.726Z,40.87
2023-02-08T06:05:40.147Z,40.93
2023-02-08T06:06:12.405Z,41.18
2023-02-08T06:06:47.357Z,40.72
2023-02-08T06:07:19.607Z,40.54
2023-02-08T06:07:51.835Z,40.50
2023-02-08T06:08:26.639Z,40.81
2023-02-08T06:08:58.843Z,40.66
2023-02-08T06:09:34.058Z,40.39
2023-02-08T06:10:07.223Z,40.52
2023-02-08T06:10:39.895Z,40.34
2023-02-08T06:11:14.902Z,40.69
2023-02-08T06:11:47.499Z,40.72
2023-02-08T06:12:19.700Z,40.42
2023-02-08T06:12:54.565Z,40.45
2023-02-08T06:13:26.818Z,40.32
2023-02-08T06:13:59.061Z,40.56
2023-02-08T06:14:34.019Z,40.19
2023-02-08T06:15:06.818Z,40.22
2023-02-08T06:15:39.058Z,40.39
2023-02-08T06:16:13.885Z,40.11
2023-02-08T06:16:46.256Z,40.24
2023-02-08T06:17:21.105Z,40.31
2023-02-08T06:17:53.644Z,40.23
2023-02-08T06:18:28.500Z,40.45
2023-02-08T06:19:00.729Z,40.14
2023-02-08T06:19:35.584Z,40.42
2023-02-08T06:20:11.306Z,40.30
2023-02-08T06:20:43.637Z,40.35
2023-02-08T06:21:23.436Z,40.23
2023-02-08T06:21:56.584Z,40.37
2023-02-08T06:22:28.819Z,40.42
2023-02-08T06:23:03.657Z,40.09
2023-02-08T06:23:35.943Z,39.99
2023-02-08T06:24:08.427Z,39.89
2023-02-08T06:24:43.266Z,39.87
2023-02-08T06:25:15.680Z,39.90
2023-02-08T06:25:50.524Z,39.99
2023-02-08T06:26:22.787Z,40.42
2023-02-08T06:26:57.607Z,40.12
2023-02-08T06:27:29.847Z,40.04
2023-02-08T06:28:03.220Z,40.03
2023-02-08T06:28:38.092Z,40.15
2023-02-08T06:29:10.824Z,40.47
2023-02-08T06:29:43.068Z,40.43
2023-02-08T06:30:17.894Z,40.04
2023-02-08T06:30:50.259Z,40.16
2023-02-08T06:31:22.502Z,40.50
2023-02-08T06:31:57.426Z,40.26
2023-02-08T06:32:29.827Z,40.08
2023-02-08T06:33:02.070Z,40.42
2023-02-08T06:33:36.880Z,40.59
2023-02-08T06:34:09.130Z,40.44
2023-02-08T06:34:44.055Z,40.16
2023-02-08T06:35:18.943Z,40.48
2023-02-08T06:35:52.294Z,40.52
2023-02-08T06:36:24.521Z,40.74
2023-02-08T06:37:00.244Z,40.33
2023-02-08T06:37:32.494Z,40.27
2023-02-08T06:38:04.754Z,40.60
2023-02-08T06:38:39.567Z,40.25
2023-02-08T06:39:11.964Z,40.47
2023-02-08T06:39:44.258Z,40.30
2023-02-08T06:40:19.256Z,40.35
2023-02-08T06:40:51.592Z,40.59
2023-02-08T06:41:23.841Z,40.45
2023-02-08T06:41:58.750Z,40.29
2023-02-08T06:42:31.033Z,40.44
2023-02-08T06:43:05.985Z,40.19
2023-02-08T06:43:38.951Z,40.46
2023-02-08T06:44:13.766Z,40.42
2023-02-08T06:44:54.729Z,39.99
2023-02-08T06:45:30.416Z,39.82
2023-02-08T06:46:05.004Z,39.72
2023-02-08T06:46:37.312Z,40.25
2023-02-08T06:47:13.446Z,40.20
2023-02-08T06:47:45.689Z,40.01
2023-02-08T06:48:17.982Z,39.96
2023-02-08T06:48:52.808Z,39.75
2023-02-08T06:49:25.051Z,39.95
2023-02-08T06:50:02.482Z,39.99
2023-02-08T06:50:34.787Z,39.98
2023-02-08T06:51:07.024Z,39.81
2023-02-08T06:51:41.944Z,40.15
2023-02-08T06:52:14.211Z,40.06
2023-02-08T06:52:49.078Z,39.77
2023-02-08T06:53:21.535Z,39.91
2023-02-08T06:53:56.356Z,40.21
2023-02-08T06:54:28.576Z,39.84
2023-02-08T06:55:00.819Z,40.06
2023-02-08T06:55:35.652Z,39.87
2023-02-08T06:56:08.247Z,40.06
2023-02-08T06:56:40.473Z,40.16
2023-02-08T06:57:15.583Z,39.89
2023-02-08T06:57:48.804Z,40.28
2023-02-08T06:58:21.161Z,39.79
2023-02-08T06:58:55.992Z,39.89
2023-02-08T06:59:28.272Z,39.87
2023-02-08T07:00:03.208Z,39.93
2023-02-08T07:00:35.513Z,40.19
2023-02-08T07:01:07.835Z,40.16
2023-02-08T07:01:42.736Z,39.97
2023-02-08T07:02:17.011Z,40.04
2023-02-08T07:02:52.643Z,39.86
2023-02-08T07:03:24.916Z,39.84
2023-02-08T07:03:57.196Z,40.17
2023-02-08T07:04:32.013Z,40.21
2023-02-08T07:05:07.690Z,40.26
2023-02-08T07:05:49.496Z,40.13
2023-02-08T07:06:27.796Z,40.42
2023-02-08T07:07:02.624Z,40.20
2023-02-08T07:07:34.883Z,40.19
2023-02-08T07:08:10.287Z,39.87
2023-02-08T07:08:42.790Z,40.09
2023-02-08T07:09:17.666Z,40.18
2023-02-08T07:09:49.919Z,40.23
2023-02-08T07:10:24.823Z,40.10
2023-02-08T07:10:57.035Z,40.21
2023-02-08T07:11:29.287Z,39.93
2023-02-08T07:12:05.444Z,39.89
2023-02-08T07:12:37.779Z,40.13
2023-02-08T07:13:10.036Z,40.03
2023-02-08T07:13:45.180Z,40.21
2023-02-08T07:14:17.422Z,39.89
2023-02-08T07:14:52.702Z,41.08
2023-02-08T07:15:25.126Z,41.19
2023-02-08T07:15:57.362Z,41.49
2023-02-08T07:16:32.232Z,41.46
2023-02-08T07:17:04.496Z,41.44
2023-02-08T07:17:36.707Z,40.70
2023-02-08T07:18:11.549Z,40.70
2023-02-08T07:18:43.836Z,40.31
2023-02-08T07:19:18.689Z,39.93
2023-02-08T07:19:51.116Z,39.91
2023-02-08T07:20:28.647Z,39.54
2023-02-08T07:21:00.975Z,39.46
2023-02-08T07:21:35.811Z,38.90
2023-02-08T07:22:08.456Z,38.60
2023-02-08T07:22:43.624Z,38.74
2023-02-08T07:23:15.868Z,38.57
2023-02-08T07:23:50.704Z,38.10
2023-02-08T07:24:23.296Z,37.95
2023-02-08T07:24:55.568Z,38.05
2023-02-08T07:25:30.444Z,37.67
2023-02-08T07:26:05.783Z,37.44
2023-02-08T07:26:40.619Z,37.58
2023-02-08T07:27:14.317Z,37.19
2023-02-08T07:27:46.611Z,37.34
2023-02-08T07:28:21.497Z,37.33
2023-02-08T07:28:53.758Z,37.11
2023-02-08T07:29:28.699Z,36.96
2023-02-08T07:30:01.100Z,37.08
2023-02-08T07:30:35.964Z,36.90
2023-02-08T07:31:09.570Z,36.64
2023-02-08T07:31:41.899Z,36.48
2023-02-08T07:32:16.735Z,36.63
2023-02-08T07:32:48.996Z,36.76
2023-02-08T07:33:25.294Z,36.42
2023-02-08T07:33:59.217Z,36.63
2023-02-08T07:34:32.288Z,36.15
2023-02-08T07:35:07.329Z,36.20